sensor_id;sensor_type;location;lat;lon;timestamp;pressure;altitude;pressure_sealevel;temperature;humidity
39949;BME280;29070;48.102;-1.652;2022-10-31T00:04:56;101555.22;;;12.25;82.21
39949;BME280;29070;48.102;-1.652;2022-10-31T00:09:56;101555.78;;;12.20;82.29
39949;BME280;29070;48.102;-1.652;2022-10-31T00:14:57;101553.06;;;12.13;82.29
39949;BME280;29070;48.102;-1.652;2022-10-31T00:19:57;101545.19;;;12.13;82.28
39949;BME280;29070;48.102;-1.652;2022-10-31T00:24:57;101549.19;;;12.09;82.26
39949;BME280;29070;48.102;-1.652;2022-10-31T00:29:58;101547.53;;;12.08;82.25
39949;BME280;29070;48.102;-1.652;2022-10-31T00:34:58;101541.84;;;12.05;82.34
39949;BME280;29070;48.102;-1.652;2022-10-31T00:39:58;101547.47;;;12.01;82.23
39949;BME280;29070;48.102;-1.652;2022-10-31T00:44:59;101538.94;;;11.99;82.34
39949;BME280;29070;48.102;-1.652;2022-10-31T00:49:59;101529.44;;;11.98;82.59
39949;BME280;29070;48.102;-1.652;2022-10-31T00:54:59;101525.97;;;11.98;82.67
39949;BME280;29070;48.102;-1.652;2022-10-31T00:59:59;101521.53;;;11.98;82.65
39949;BME280;29070;48.102;-1.652;2022-10-31T01:05:00;101522.34;;;11.99;82.94
39949;BME280;29070;48.102;-1.652;2022-10-31T01:10:00;101508.38;;;11.98;82.91
39949;BME280;29070;48.102;-1.652;2022-10-31T01:15:00;101513.44;;;12.00;82.81
39949;BME280;29070;48.102;-1.652;2022-10-31T01:20:01;101505.53;;;12.00;83.06
39949;BME280;29070;48.102;-1.652;2022-10-31T01:25:02;101494.03;;;12.01;83.06
39949;BME280;29070;48.102;-1.652;2022-10-31T01:30:04;101489.13;;;11.98;83.03
39949;BME280;29070;48.102;-1.652;2022-10-31T01:35:05;101488.94;;;11.99;83.09
39949;BME280;29070;48.102;-1.652;2022-10-31T01:40:06;101480.25;;;11.99;83.04
39949;BME280;29070;48.102;-1.652;2022-10-31T01:45:09;101475.16;;;11.97;82.89
39949;BME280;29070;48.102;-1.652;2022-10-31T01:50:14;101479.00;;;11.95;82.96
39949;BME280;29070;48.102;-1.652;2022-10-31T01:55:18;101474.41;;;11.89;82.92
39949;BME280;29070;48.102;-1.652;2022-10-31T02:00:21;101475.06;;;11.91;83.09
39949;BME280;29070;48.102;-1.652;2022-10-31T02:05:25;101484.25;;;11.95;83.17
39949;BME280;29070;48.102;-1.652;2022-10-31T02:10:26;101478.59;;;11.98;83.29
39949;BME280;29070;48.102;-1.652;2022-10-31T02:15:28;101478.25;;;12.01;83.46
39949;BME280;29070;48.102;-1.652;2022-10-31T02:20:37;101466.50;;;12.04;83.66
39949;BME280;29070;48.102;-1.652;2022-10-31T02:31:26;101462.59;;;12.14;83.91
39949;BME280;29070;48.102;-1.652;2022-10-31T02:36:46;101451.94;;;12.23;83.98
39949;BME280;29070;48.102;-1.652;2022-10-31T02:42:16;101448.94;;;12.26;84.11
39949;BME280;29070;48.102;-1.652;2022-10-31T02:47:22;101450.00;;;12.31;84.06
39949;BME280;29070;48.102;-1.652;2022-10-31T02:52:30;101443.75;;;12.32;84.22
39949;BME280;29070;48.102;-1.652;2022-10-31T02:57:31;101447.00;;;12.34;84.89
39949;BME280;29070;48.102;-1.652;2022-10-31T03:18:26;101410.63;;;12.45;84.23
39949;BME280;29070;48.102;-1.652;2022-10-31T03:23:28;101402.94;;;12.43;84.30
39949;BME280;29070;48.102;-1.652;2022-10-31T03:28:40;101404.38;;;12.46;84.16
39949;BME280;29070;48.102;-1.652;2022-10-31T03:33:42;101391.00;;;12.47;84.17
39949;BME280;29070;48.102;-1.652;2022-10-31T03:38:45;101386.38;;;12.49;84.32
39949;BME280;29070;48.102;-1.652;2022-10-31T03:43:52;101384.34;;;12.51;84.47
39949;BME280;29070;48.102;-1.652;2022-10-31T03:48:55;101373.00;;;12.51;84.49
39949;BME280;29070;48.102;-1.652;2022-10-31T03:59:37;101356.19;;;12.52;84.58
39949;BME280;29070;48.102;-1.652;2022-10-31T04:04:42;101340.81;;;12.55;84.75
39949;BME280;29070;48.102;-1.652;2022-10-31T04:09:45;101342.28;;;12.58;84.58
39949;BME280;29070;48.102;-1.652;2022-10-31T04:14:47;101344.84;;;12.51;84.55
39949;BME280;29070;48.102;-1.652;2022-10-31T04:19:50;101329.06;;;12.51;84.42
39949;BME280;29070;48.102;-1.652;2022-10-31T04:24:51;101326.78;;;12.48;84.46
39949;BME280;29070;48.102;-1.652;2022-10-31T04:29:51;101329.22;;;12.43;84.36
39949;BME280;29070;48.102;-1.652;2022-10-31T04:34:51;101323.94;;;12.43;84.43
39949;BME280;29070;48.102;-1.652;2022-10-31T04:39:52;101318.25;;;12.39;84.35
39949;BME280;29070;48.102;-1.652;2022-10-31T04:44:52;101303.25;;;12.40;84.49
39949;BME280;29070;48.102;-1.652;2022-10-31T04:49:52;101294.75;;;12.38;84.46
39949;BME280;29070;48.102;-1.652;2022-10-31T04:54:53;101292.13;;;12.45;84.61
39949;BME280;29070;48.102;-1.652;2022-10-31T04:59:53;101288.50;;;12.46;84.58
39949;BME280;29070;48.102;-1.652;2022-10-31T05:04:53;101283.00;;;12.40;84.47
39949;BME280;29070;48.102;-1.652;2022-10-31T05:09:54;101282.44;;;12.45;84.65
39949;BME280;29070;48.102;-1.652;2022-10-31T05:14:54;101272.53;;;12.47;84.70
39949;BME280;29070;48.102;-1.652;2022-10-31T05:19:54;101274.13;;;12.48;84.71
39949;BME280;29070;48.102;-1.652;2022-10-31T05:24:55;101268.88;;;12.48;84.78
39949;BME280;29070;48.102;-1.652;2022-10-31T05:29:55;101264.25;;;12.50;85.01
39949;BME280;29070;48.102;-1.652;2022-10-31T05:34:55;101261.19;;;12.53;85.17
39949;BME280;29070;48.102;-1.652;2022-10-31T05:39:56;101267.50;;;12.52;84.93
39949;BME280;29070;48.102;-1.652;2022-10-31T05:44:56;101250.91;;;12.58;85.15
39949;BME280;29070;48.102;-1.652;2022-10-31T05:49:56;101239.38;;;12.59;85.10
39949;BME280;29070;48.102;-1.652;2022-10-31T05:54:57;101228.25;;;12.64;85.17
39949;BME280;29070;48.102;-1.652;2022-10-31T05:59:57;101217.13;;;12.69;85.35
39949;BME280;29070;48.102;-1.652;2022-10-31T06:04:58;101211.47;;;12.72;85.49
39949;BME280;29070;48.102;-1.652;2022-10-31T06:09:58;101202.16;;;12.76;85.39
39949;BME280;29070;48.102;-1.652;2022-10-31T06:14:58;101194.25;;;12.76;85.54
39949;BME280;29070;48.102;-1.652;2022-10-31T06:19:59;101187.16;;;12.76;85.39
39949;BME280;29070;48.102;-1.652;2022-10-31T06:24:59;101172.56;;;12.74;85.31
39949;BME280;29070;48.102;-1.652;2022-10-31T06:29:59;101167.31;;;12.74;85.34
39949;BME280;29070;48.102;-1.652;2022-10-31T06:35:00;101164.28;;;12.77;85.49
39949;BME280;29070;48.102;-1.652;2022-10-31T06:40:00;101139.97;;;12.82;85.64
39949;BME280;29070;48.102;-1.652;2022-10-31T06:45:00;101137.75;;;12.85;85.62
39949;BME280;29070;48.102;-1.652;2022-10-31T06:50:01;101119.09;;;12.87;85.48
39949;BME280;29070;48.102;-1.652;2022-10-31T06:55:01;101127.81;;;12.87;85.52
39949;BME280;29070;48.102;-1.652;2022-10-31T07:00:02;101117.28;;;12.87;85.55
39949;BME280;29070;48.102;-1.652;2022-10-31T07:05:02;101120.13;;;12.92;85.72
39949;BME280;29070;48.102;-1.652;2022-10-31T07:10:03;101092.78;;;12.93;85.74
39949;BME280;29070;48.102;-1.652;2022-10-31T07:15:04;101094.38;;;12.94;85.86
39949;BME280;29070;48.102;-1.652;2022-10-31T07:20:05;101078.78;;;13.00;86.01
39949;BME280;29070;48.102;-1.652;2022-10-31T07:25:06;101070.09;;;13.06;85.95
39949;BME280;29070;48.102;-1.652;2022-10-31T07:30:07;101072.50;;;13.07;86.01
39949;BME280;29070;48.102;-1.652;2022-10-31T07:35:11;101060.75;;;13.10;86.22
39949;BME280;29070;48.102;-1.652;2022-10-31T07:40:12;101087.31;;;13.15;86.23
39949;BME280;29070;48.102;-1.652;2022-10-31T07:45:16;101087.91;;;13.17;86.28
39949;BME280;29070;48.102;-1.652;2022-10-31T07:55:18;101070.47;;;13.29;86.56
39949;BME280;29070;48.102;-1.652;2022-10-31T08:00:19;101062.38;;;13.38;86.66
39949;BME280;29070;48.102;-1.652;2022-10-31T08:05:19;101049.59;;;13.48;86.62
39949;BME280;29070;48.102;-1.652;2022-10-31T08:10:20;101038.63;;;13.58;86.74
39949;BME280;29070;48.102;-1.652;2022-10-31T08:15:22;101028.88;;;13.65;86.74
39949;BME280;29070;48.102;-1.652;2022-10-31T08:20:22;101026.59;;;13.75;87.01
39949;BME280;29070;48.102;-1.652;2022-10-31T08:25:23;101024.13;;;13.80;86.89
39949;BME280;29070;48.102;-1.652;2022-10-31T08:30:29;101005.84;;;13.85;86.75
39949;BME280;29070;48.102;-1.652;2022-10-31T08:35:31;100995.69;;;13.89;86.57
39949;BME280;29070;48.102;-1.652;2022-10-31T08:40:32;100972.97;;;13.88;86.47
39949;BME280;29070;48.102;-1.652;2022-10-31T08:45:34;100975.78;;;13.93;86.51
39949;BME280;29070;48.102;-1.652;2022-10-31T08:50:35;100968.88;;;13.99;86.69
39949;BME280;29070;48.102;-1.652;2022-10-31T08:55:37;100967.22;;;14.04;86.66
39949;BME280;29070;48.102;-1.652;2022-10-31T09:00:38;100948.91;;;14.09;86.63
39949;BME280;29070;48.102;-1.652;2022-10-31T09:05:38;100935.06;;;14.14;86.61
39949;BME280;29070;48.102;-1.652;2022-10-31T09:10:39;100916.38;;;14.16;86.65
39949;BME280;29070;48.102;-1.652;2022-10-31T09:15:41;100908.25;;;14.17;86.48
39949;BME280;29070;48.102;-1.652;2022-10-31T09:20:44;100891.16;;;14.20;86.46
39949;BME280;29070;48.102;-1.652;2022-10-31T09:25:47;100889.13;;;14.22;86.14
39949;BME280;29070;48.102;-1.652;2022-10-31T09:30:48;100876.50;;;14.24;86.48
39949;BME280;29070;48.102;-1.652;2022-10-31T09:35:50;100887.44;;;14.27;86.32
39949;BME280;29070;48.102;-1.652;2022-10-31T09:51:46;100858.19;;;14.29;85.93
39949;BME280;29070;48.102;-1.652;2022-10-31T09:56:48;100850.41;;;14.34;86.08
39949;BME280;29070;48.102;-1.652;2022-10-31T10:06:56;100838.03;;;14.60;86.47
39949;BME280;29070;48.102;-1.652;2022-10-31T10:17:42;100829.97;;;14.92;86.63
39949;BME280;29070;48.102;-1.652;2022-10-31T10:28:27;100796.47;;;15.04;86.33
39949;BME280;29070;48.102;-1.652;2022-10-31T10:33:37;100791.81;;;15.18;86.31
39949;BME280;29070;48.102;-1.652;2022-10-31T10:38:54;100777.75;;;15.36;86.26
39949;BME280;29070;48.102;-1.652;2022-10-31T10:43:56;100775.81;;;15.43;86.03
39949;BME280;29070;48.102;-1.652;2022-10-31T10:49:16;100769.78;;;15.54;85.83
39949;BME280;29070;48.102;-1.652;2022-10-31T10:55:01;100750.22;;;15.67;85.74
39949;BME280;29070;48.102;-1.652;2022-10-31T10:59:53;100736.69;;;15.87;85.81
39949;BME280;29070;48.102;-1.652;2022-10-31T11:04:55;100724.50;;;15.86;85.39
39949;BME280;29070;48.102;-1.652;2022-10-31T11:10:04;100710.69;;;15.84;85.04
39949;BME280;29070;48.102;-1.652;2022-10-31T11:15:20;100705.28;;;16.03;85.14
39949;BME280;29070;48.102;-1.652;2022-10-31T11:20:31;100717.47;;;16.15;85.09
39949;BME280;29070;48.102;-1.652;2022-10-31T11:25:32;100678.66;;;16.21;84.83
39949;BME280;29070;48.102;-1.652;2022-10-31T11:30:42;100669.19;;;16.25;84.51
39949;BME280;29070;48.102;-1.652;2022-10-31T11:35:43;100657.59;;;16.26;84.46
39949;BME280;29070;48.102;-1.652;2022-10-31T11:41:00;100659.75;;;16.29;84.11
39949;BME280;29070;48.102;-1.652;2022-10-31T11:46:11;100647.09;;;16.31;83.99
39949;BME280;29070;48.102;-1.652;2022-10-31T11:51:21;100633.25;;;16.29;83.93
39949;BME280;29070;48.102;-1.652;2022-10-31T11:56:22;100631.66;;;16.28;83.88
39949;BME280;29070;48.102;-1.652;2022-10-31T12:01:25;100607.25;;;16.26;83.89
39949;BME280;29070;48.102;-1.652;2022-10-31T12:06:34;100590.88;;;16.29;83.85
39949;BME280;29070;48.102;-1.652;2022-10-31T12:22:29;100564.06;;;16.54;84.00
39949;BME280;29070;48.102;-1.652;2022-10-31T12:27:40;100557.56;;;16.62;83.82
39949;BME280;29070;48.102;-1.652;2022-10-31T12:38:21;100526.28;;;16.76;83.63
39949;BME280;29070;48.102;-1.652;2022-10-31T12:59:40;100477.16;;;17.24;83.58
39949;BME280;29070;48.102;-1.652;2022-10-31T13:05:04;100469.81;;;17.31;83.37
39949;BME280;29070;48.102;-1.652;2022-10-31T13:10:15;100453.72;;;17.38;83.25
39949;BME280;29070;48.102;-1.652;2022-10-31T13:15:19;100450.88;;;17.45;83.19
39949;BME280;29070;48.102;-1.652;2022-10-31T13:20:41;100445.16;;;17.53;83.15
39949;BME280;29070;48.102;-1.652;2022-10-31T13:25:46;100435.94;;;17.61;83.10
39949;BME280;29070;48.102;-1.652;2022-10-31T13:30:48;100426.41;;;17.65;82.89
39949;BME280;29070;48.102;-1.652;2022-10-31T13:46:48;100389.91;;;17.77;82.64
39949;BME280;29070;48.102;-1.652;2022-10-31T13:51:49;100392.06;;;17.80;82.63
39949;BME280;29070;48.102;-1.652;2022-10-31T13:56:52;100381.22;;;17.82;82.58
39949;BME280;29070;48.102;-1.652;2022-10-31T14:01:58;100375.66;;;17.83;82.59
39949;BME280;29070;48.102;-1.652;2022-10-31T14:07:11;100377.03;;;17.86;82.24
39949;BME280;29070;48.102;-1.652;2022-10-31T14:12:23;100362.94;;;17.85;82.19
39949;BME280;29070;48.102;-1.652;2022-10-31T14:17:27;100344.38;;;17.85;81.87
39949;BME280;29070;48.102;-1.652;2022-10-31T14:22:33;100346.25;;;17.90;81.85
39949;BME280;29070;48.102;-1.652;2022-10-31T14:27:35;100337.50;;;17.89;81.75
39949;BME280;29070;48.102;-1.652;2022-10-31T14:32:43;100336.75;;;17.94;81.56
39949;BME280;29070;48.102;-1.652;2022-10-31T14:53:31;100314.47;;;18.00;80.46
39949;BME280;29070;48.102;-1.652;2022-10-31T14:58:39;100301.44;;;17.99;80.77
39949;BME280;29070;48.102;-1.652;2022-10-31T15:03:44;100295.03;;;17.95;80.00
39949;BME280;29070;48.102;-1.652;2022-10-31T15:08:53;100298.38;;;17.85;79.07
39949;BME280;29070;48.102;-1.652;2022-10-31T15:13:58;100314.00;;;17.81;78.66
39949;BME280;29070;48.102;-1.652;2022-10-31T15:19:07;100307.03;;;17.70;78.18
39949;BME280;29070;48.102;-1.652;2022-10-31T15:24:12;100295.13;;;17.45;78.08
39949;BME280;29070;48.102;-1.652;2022-10-31T15:29:18;100293.00;;;17.20;77.86
39949;BME280;29070;48.102;-1.652;2022-10-31T15:34:30;100295.28;;;17.06;78.22
39949;BME280;29070;48.102;-1.652;2022-10-31T15:39:33;100312.16;;;17.00;78.56
39949;BME280;29070;48.102;-1.652;2022-10-31T15:44:36;100300.41;;;16.91;78.67
39949;BME280;29070;48.102;-1.652;2022-10-31T15:49:39;100305.06;;;16.84;78.76
39949;BME280;29070;48.102;-1.652;2022-10-31T15:54:51;100297.81;;;16.79;78.77
39949;BME280;29070;48.102;-1.652;2022-10-31T15:59:53;100306.53;;;16.74;78.57
39949;BME280;29070;48.102;-1.652;2022-10-31T16:04:59;100285.44;;;16.63;78.70
39949;BME280;29070;48.102;-1.652;2022-10-31T16:10:02;100267.06;;;16.56;78.81
39949;BME280;29070;48.102;-1.652;2022-10-31T16:15:05;100258.31;;;16.55;78.91
39949;BME280;29070;48.102;-1.652;2022-10-31T16:20:07;100267.63;;;16.58;78.92
39949;BME280;29070;48.102;-1.652;2022-10-31T16:25:29;100268.13;;;16.55;79.00
39949;BME280;29070;48.102;-1.652;2022-10-31T16:30:39;100259.88;;;16.51;78.88
39949;BME280;29070;48.102;-1.652;2022-10-31T16:35:39;100256.91;;;16.48;79.01
39949;BME280;29070;48.102;-1.652;2022-10-31T16:40:40;100251.28;;;16.44;79.01
39949;BME280;29070;48.102;-1.652;2022-10-31T16:45:48;100255.72;;;16.38;79.21
39949;BME280;29070;48.102;-1.652;2022-10-31T16:50:49;100250.66;;;16.37;79.31
39949;BME280;29070;48.102;-1.652;2022-10-31T16:55:59;100250.66;;;16.37;79.52
39949;BME280;29070;48.102;-1.652;2022-10-31T17:01:04;100257.81;;;16.36;79.54
39949;BME280;29070;48.102;-1.652;2022-10-31T17:06:04;100256.69;;;16.32;79.74
39949;BME280;29070;48.102;-1.652;2022-10-31T17:11:05;100250.03;;;16.30;79.90
39949;BME280;29070;48.102;-1.652;2022-10-31T17:16:08;100245.00;;;16.28;79.96
39949;BME280;29070;48.102;-1.652;2022-10-31T17:21:18;100252.69;;;16.30;80.38
39949;BME280;29070;48.102;-1.652;2022-10-31T17:26:19;100263.78;;;16.27;80.53
39949;BME280;29070;48.102;-1.652;2022-10-31T17:31:26;100247.56;;;16.23;80.47
39949;BME280;29070;48.102;-1.652;2022-10-31T17:36:27;100248.56;;;16.17;80.65
39949;BME280;29070;48.102;-1.652;2022-10-31T17:41:28;100259.31;;;16.10;81.02
39949;BME280;29070;48.102;-1.652;2022-10-31T17:46:28;100294.75;;;16.09;80.90
39949;BME280;29070;48.102;-1.652;2022-10-31T17:51:28;100281.19;;;16.06;81.10
39949;BME280;29070;48.102;-1.652;2022-10-31T17:56:29;100286.72;;;16.04;81.31
39949;BME280;29070;48.102;-1.652;2022-10-31T18:01:29;100283.28;;;16.04;81.20
39949;BME280;29070;48.102;-1.652;2022-10-31T18:06:29;100286.41;;;16.00;81.38
39949;BME280;29070;48.102;-1.652;2022-10-31T18:11:30;100290.13;;;15.99;81.70
39949;BME280;29070;48.102;-1.652;2022-10-31T18:16:31;100287.38;;;15.94;81.69
39949;BME280;29070;48.102;-1.652;2022-10-31T18:21:31;100284.66;;;15.89;81.87
39949;BME280;29070;48.102;-1.652;2022-10-31T18:26:32;100295.66;;;15.81;81.84
39949;BME280;29070;48.102;-1.652;2022-10-31T18:31:32;100296.59;;;15.75;82.02
39949;BME280;29070;48.102;-1.652;2022-10-31T18:36:33;100321.34;;;15.69;81.99
39949;BME280;29070;48.102;-1.652;2022-10-31T18:41:33;100319.41;;;15.64;82.30
39949;BME280;29070;48.102;-1.652;2022-10-31T18:46:36;100334.97;;;15.60;82.49
39949;BME280;29070;48.102;-1.652;2022-10-31T18:51:36;100346.56;;;15.59;82.67
39949;BME280;29070;48.102;-1.652;2022-10-31T18:56:37;100363.63;;;15.52;82.62
39949;BME280;29070;48.102;-1.652;2022-10-31T19:01:38;100385.97;;;15.44;82.34
39949;BME280;29070;48.102;-1.652;2022-10-31T19:06:38;100423.59;;;15.34;81.84
39949;BME280;29070;48.102;-1.652;2022-10-31T19:11:38;100426.28;;;15.22;81.32
39949;BME280;29070;48.102;-1.652;2022-10-31T19:16:39;100418.47;;;15.16;81.45
39949;BME280;29070;48.102;-1.652;2022-10-31T19:21:40;100431.56;;;15.11;81.24
39949;BME280;29070;48.102;-1.652;2022-10-31T19:26:40;100445.94;;;15.03;80.90
39949;BME280;29070;48.102;-1.652;2022-10-31T19:31:40;100450.91;;;14.99;80.68
39949;BME280;29070;48.102;-1.652;2022-10-31T19:36:41;100467.56;;;15.00;80.84
39949;BME280;29070;48.102;-1.652;2022-10-31T19:41:42;100493.63;;;14.96;80.66
39949;BME280;29070;48.102;-1.652;2022-10-31T19:46:42;100504.66;;;14.93;80.31
39949;BME280;29070;48.102;-1.652;2022-10-31T19:51:44;100516.06;;;14.94;80.48
39949;BME280;29070;48.102;-1.652;2022-10-31T19:56:44;100525.44;;;14.90;80.34
39949;BME280;29070;48.102;-1.652;2022-10-31T20:01:45;100537.75;;;14.84;79.73
39949;BME280;29070;48.102;-1.652;2022-10-31T20:06:45;100559.56;;;14.79;79.75
39949;BME280;29070;48.102;-1.652;2022-10-31T20:11:46;100559.44;;;14.74;79.55
39949;BME280;29070;48.102;-1.652;2022-10-31T20:16:46;100587.94;;;14.72;79.50
39949;BME280;29070;48.102;-1.652;2022-10-31T20:21:47;100601.81;;;14.67;79.44
39949;BME280;29070;48.102;-1.652;2022-10-31T20:26:47;100612.47;;;14.61;79.03
39949;BME280;29070;48.102;-1.652;2022-10-31T20:31:47;100622.44;;;14.59;79.07
39949;BME280;29070;48.102;-1.652;2022-10-31T20:36:48;100666.59;;;14.52;78.53
39949;BME280;29070;48.102;-1.652;2022-10-31T20:41:48;100666.31;;;14.41;78.34
39949;BME280;29070;48.102;-1.652;2022-10-31T20:46:48;100662.50;;;14.37;78.35
39949;BME280;29070;48.102;-1.652;2022-10-31T20:51:49;100680.69;;;14.27;78.07
39949;BME280;29070;48.102;-1.652;2022-10-31T20:56:49;100694.19;;;14.19;77.75
39949;BME280;29070;48.102;-1.652;2022-10-31T21:01:49;100720.28;;;14.08;77.34
39949;BME280;29070;48.102;-1.652;2022-10-31T21:06:50;100720.78;;;13.99;77.42
39949;BME280;29070;48.102;-1.652;2022-10-31T21:11:50;100739.53;;;13.90;77.40
39949;BME280;29070;48.102;-1.652;2022-10-31T21:16:50;100746.91;;;13.82;77.29
39949;BME280;29070;48.102;-1.652;2022-10-31T21:21:51;100757.28;;;13.77;77.35
39949;BME280;29070;48.102;-1.652;2022-10-31T21:26:51;100775.41;;;13.66;76.80
39949;BME280;29070;48.102;-1.652;2022-10-31T21:31:52;100787.63;;;13.61;76.95
39949;BME280;29070;48.102;-1.652;2022-10-31T21:36:52;100793.19;;;13.52;77.01
39949;BME280;29070;48.102;-1.652;2022-10-31T21:41:52;100813.31;;;13.47;77.04
39949;BME280;29070;48.102;-1.652;2022-10-31T21:46:53;100832.38;;;13.42;77.01
39949;BME280;29070;48.102;-1.652;2022-10-31T21:51:53;100844.41;;;13.31;76.91
39949;BME280;29070;48.102;-1.652;2022-10-31T21:56:54;100861.03;;;13.25;77.02
39949;BME280;29070;48.102;-1.652;2022-10-31T22:01:56;100868.97;;;13.19;76.63
39949;BME280;29070;48.102;-1.652;2022-10-31T22:06:58;100868.56;;;13.15;76.58
39949;BME280;29070;48.102;-1.652;2022-10-31T22:11:59;100892.09;;;13.10;76.48
39949;BME280;29070;48.102;-1.652;2022-10-31T22:17:00;100908.50;;;13.05;76.54
39949;BME280;29070;48.102;-1.652;2022-10-31T22:22:00;100925.56;;;13.03;76.49
39949;BME280;29070;48.102;-1.652;2022-10-31T22:27:01;100935.31;;;12.95;76.34
39949;BME280;29070;48.102;-1.652;2022-10-31T22:32:01;100940.38;;;12.90;76.38
39949;BME280;29070;48.102;-1.652;2022-10-31T22:37:02;100944.00;;;12.89;76.40
39949;BME280;29070;48.102;-1.652;2022-10-31T22:42:02;100947.88;;;12.80;76.36
39949;BME280;29070;48.102;-1.652;2022-10-31T22:47:02;100956.19;;;12.77;76.45
39949;BME280;29070;48.102;-1.652;2022-10-31T22:52:03;100960.22;;;12.73;76.55
39949;BME280;29070;48.102;-1.652;2022-10-31T22:57:04;100958.22;;;12.68;76.51
39949;BME280;29070;48.102;-1.652;2022-10-31T23:02:04;100953.56;;;12.64;76.37
39949;BME280;29070;48.102;-1.652;2022-10-31T23:07:05;100965.13;;;12.63;76.48
39949;BME280;29070;48.102;-1.652;2022-10-31T23:12:06;100969.94;;;12.59;76.48
39949;BME280;29070;48.102;-1.652;2022-10-31T23:17:25;100973.19;;;12.54;76.21
39949;BME280;29070;48.102;-1.652;2022-10-31T23:22:25;100973.19;;;12.48;76.18
39949;BME280;29070;48.102;-1.652;2022-10-31T23:27:26;100979.69;;;12.45;76.20
39949;BME280;29070;48.102;-1.652;2022-10-31T23:32:34;100978.44;;;12.41;76.04
39949;BME280;29070;48.102;-1.652;2022-10-31T23:37:36;100989.38;;;12.38;75.91
39949;BME280;29070;48.102;-1.652;2022-10-31T23:42:37;101018.31;;;12.31;75.86
39949;BME280;29070;48.102;-1.652;2022-10-31T23:47:38;101018.50;;;12.23;75.67
39949;BME280;29070;48.102;-1.652;2022-10-31T23:52:38;101026.59;;;12.22;75.73
39949;BME280;29070;48.102;-1.652;2022-10-31T23:57:38;101037.94;;;12.22;75.77
